Time;durP1;ratioP1;P1;durP2;ratioP2;P2;SDS_P1;SDS_P2;PMS_P1;PMS_P2;Temp;Humidity;BMP_temperature;BMP_pressure;BME280_temperature;BME280_humidity;BME280_pressure;Samples;Min_cycle;Max_cycle;Signal;HPM_P1;HPM_P2
2022/01/06 00:00:28;;;;;;;5.90;0.98;;;-0.50;73.70;;;;;;4149081;28;20528;-70
2022/01/06 00:02:29;;;;;;;2.45;0.90;;;-0.50;73.90;;;;;;4160616;28;20021;-71
2022/01/06 00:04:30;;;;;;;5.72;1.10;;;-0.60;74.10;;;;;;4161136;28;20068;-71
2022/01/06 00:06:36;;;;;;;6.95;1.08;;;-0.60;74.10;;;;;;4161163;28;20033;-71
2022/01/06 00:08:38;;;;;;;6.45;1.15;;;-0.60;74.20;;;;;;4143904;28;20037;-71
2022/01/06 00:10:39;;;;;;;7.20;1.45;;;-0.60;74.20;;;;;;4149146;28;20040;-71
2022/01/06 00:13:02;;;;;;;11.98;2.00;;;-0.70;74.10;;;;;;4158956;28;20412;-71
2022/01/06 00:15:23;;;;;;;4.93;1.10;;;-0.70;74.20;;;;;;4129617;28;20398;-71
2022/01/06 00:17:43;;;;;;;6.53;0.95;;;-0.80;74.40;;;;;;4152268;28;20482;-71
2022/01/06 00:23:19;;;;;;;10.05;1.40;;;-0.80;74.60;;;;;;4144407;28;20104;-71
2022/01/06 00:24:27;;;;;;;10.88;1.48;;;-0.90;75.30;;;;;;4159072;28;20028;-71
2022/01/06 00:26:28;;;;;;;10.63;1.40;;;-0.90;75.60;;;;;;4141991;28;20030;-71
2022/01/06 00:28:29;;;;;;;11.43;1.42;;;-1.00;76.00;;;;;;4162173;28;20060;-72
2022/01/06 00:30:29;;;;;;;3.75;1.08;;;-1.00;76.30;;;;;;4163678;28;20121;-71
2022/01/06 00:32:30;;;;;;;7.40;1.30;;;-1.00;76.60;;;;;;4158071;28;20117;-71
2022/01/06 00:34:30;;;;;;;7.05;1.38;;;-1.00;77.00;;;;;;4162260;28;20037;-71
2022/01/06 00:36:33;;;;;;;6.82;1.23;;;-1.00;77.10;;;;;;4144322;28;20030;-71
2022/01/06 00:38:33;;;;;;;7.03;1.35;;;-1.00;77.20;;;;;;4155829;28;20034;-70
2022/01/06 00:40:34;;;;;;;4.38;0.85;;;-1.00;77.30;;;;;;4156393;28;20406;-71
2022/01/06 00:42:35;;;;;;;9.43;1.17;;;-0.90;77.30;;;;;;4161557;28;20014;-71
2022/01/06 00:44:36;;;;;;;10.30;1.50;;;-0.90;77.30;;;;;;4153532;28;20409;-71
2022/01/06 00:46:36;;;;;;;6.30;0.90;;;-0.90;77.20;;;;;;4128355;28;20034;-71
2022/01/06 00:48:37;;;;;;;3.83;0.90;;;-0.90;77.10;;;;;;4143741;28;20088;-71
2022/01/06 00:50:38;;;;;;;3.75;1.02;;;-0.80;77.10;;;;;;4161064;28;20029;-71
2022/01/06 00:52:39;;;;;;;6.78;1.65;;;-0.80;77.00;;;;;;4141971;28;20418;-71
2022/01/06 00:54:40;;;;;;;5.20;1.48;;;-0.80;76.90;;;;;;4145546;28;20026;-71
2022/01/06 00:56:40;;;;;;;5.13;0.95;;;-0.80;76.90;;;;;;4153043;28;20040;-71
2022/01/06 00:58:41;;;;;;;11.15;1.42;;;-0.80;77.60;;;;;;4160443;28;20045;-71
2022/01/06 01:00:42;;;;;;;5.07;1.00;;;-0.70;76.80;;;;;;4163073;28;20029;-71
2022/01/06 01:02:42;;;;;;;9.82;1.42;;;-0.80;76.60;;;;;;4159615;28;20184;-71
2022/01/06 01:04:43;;;;;;;4.95;1.00;;;-0.80;76.50;;;;;;4150606;28;20037;-71
2022/01/06 01:06:43;;;;;;;5.45;1.08;;;-0.70;76.40;;;;;;4147164;28;20026;-71
2022/01/06 01:08:44;;;;;;;1.63;0.73;;;-0.70;76.40;;;;;;4159544;28;20033;-71
2022/01/06 01:10:45;;;;;;;2.83;1.00;;;-0.60;76.40;;;;;;4145294;28;20061;-71
2022/01/06 01:12:48;;;;;;;9.68;0.95;;;-0.60;76.40;;;;;;4135580;28;20109;-71
2022/01/06 01:15:05;;;;;;;5.80;1.35;;;-0.60;76.40;;;;;;4162992;28;20026;-71
2022/01/06 01:17:12;;;;;;;6.88;0.95;;;-0.50;76.40;;;;;;4163251;28;20099;-71
2022/01/06 01:19:13;;;;;;;9.43;1.10;;;-0.40;76.50;;;;;;4162728;28;20362;-71
2022/01/06 01:21:13;;;;;;;6.47;0.95;;;-0.40;76.20;;;;;;4162749;28;20035;-71
2022/01/06 01:23:15;;;;;;;8.30;0.93;;;-0.30;75.90;;;;;;4159113;28;20025;-71
2022/01/06 01:25:15;;;;;;;3.95;1.40;;;-0.30;75.70;;;;;;4145087;28;20094;-71
2022/01/06 01:27:20;;;;;;;9.60;0.98;;;-0.20;75.70;;;;;;4162923;28;20029;-71
2022/01/06 01:29:22;;;;;;;5.18;1.10;;;-0.10;76.00;;;;;;4151308;28;20033;-71
2022/01/06 01:33:23;;;;;;;8.55;1.63;;;0.00;76.90;;;;;;4141373;28;20121;-71
2022/01/06 01:35:24;;;;;;;10.90;1.40;;;0.00;77.20;;;;;;4162241;28;20021;-71
2022/01/06 01:37:25;;;;;;;5.53;1.88;;;0.00;77.40;;;;;;4160339;28;20035;-71
2022/01/06 01:39:27;;;;;;;7.43;1.67;;;0.00;77.40;;;;;;4155287;28;20263;-71
2022/01/06 01:41:27;;;;;;;8.02;1.95;;;0.00;78.00;;;;;;4144755;28;20049;-71
2022/01/06 01:43:28;;;;;;;4.65;1.63;;;0.10;77.20;;;;;;4156316;28;20025;-71
2022/01/06 01:45:31;;;;;;;7.22;1.60;;;0.10;77.00;;;;;;4162705;28;20033;-71
2022/01/06 01:47:39;;;;;;;7.97;2.03;;;0.10;77.00;;;;;;4155543;28;20030;-71
2022/01/06 01:49:56;;;;;;;7.88;1.48;;;0.10;77.00;;;;;;4144281;28;20041;-71
2022/01/06 01:51:57;;;;;;;4.13;1.45;;;0.10;76.90;;;;;;4130405;28;20092;-71
2022/01/06 01:53:57;;;;;;;3.63;1.30;;;0.10;76.90;;;;;;4156679;28;20608;-71
2022/01/06 01:55:58;;;;;;;7.32;1.50;;;0.10;76.70;;;;;;4161049;28;20044;-71
2022/01/06 01:57:58;;;;;;;3.80;1.30;;;0.10;76.80;;;;;;4162146;28;20048;-71
2022/01/06 01:59:59;;;;;;;4.05;1.10;;;0.10;76.70;;;;;;4162427;28;20092;-71
2022/01/06 02:02:00;;;;;;;6.22;1.33;;;0.10;76.70;;;;;;4155452;28;20029;-71
2022/01/06 02:04:01;;;;;;;8.20;1.40;;;0.10;76.60;;;;;;4159122;28;20032;-71
2022/01/06 02:06:01;;;;;;;5.60;1.40;;;0.20;76.70;;;;;;4162469;28;20109;-71
2022/01/06 02:08:02;;;;;;;4.40;1.38;;;0.20;76.60;;;;;;4180751;23;20049;-83
2022/01/06 02:10:04;;;;;;;3.20;1.05;;;0.20;76.50;;;;;;4160604;28;20022;-84
2022/01/06 02:12:05;;;;;;;4.55;1.20;;;0.20;76.40;;;;;;4149689;28;20045;-83
2022/01/06 02:14:06;;;;;;;5.93;1.25;;;0.30;76.40;;;;;;4163942;28;20137;-84
2022/01/06 02:16:07;;;;;;;9.40;1.50;;;0.30;76.30;;;;;;4131698;28;20034;-84
2022/01/06 02:18:07;;;;;;;6.45;1.17;;;0.30;76.30;;;;;;4133986;28;20405;-83
2022/01/06 02:20:10;;;;;;;13.00;1.20;;;0.30;76.20;;;;;;4165137;28;20029;-83
2022/01/06 02:22:11;;;;;;;2.17;1.02;;;0.30;76.20;;;;;;4174263;28;20504;-83
2022/01/06 02:24:11;;;;;;;10.50;1.30;;;0.40;76.20;;;;;;4135814;28;20036;-83
2022/01/06 02:26:12;;;;;;;4.82;0.98;;;0.40;76.20;;;;;;4134222;28;20420;-83
2022/01/06 02:28:12;;;;;;;3.92;0.95;;;0.40;76.10;;;;;;4133943;28;20030;-83
2022/01/06 02:30:13;;;;;;;1.92;0.80;;;0.40;76.00;;;;;;4145463;28;20034;-84
2022/01/06 02:32:16;;;;;;;3.15;0.80;;;0.40;75.90;;;;;;4146237;28;20727;-83
2022/01/06 02:34:17;;;;;;;4.13;1.05;;;0.50;76.00;;;;;;4135694;28;20041;-83
2022/01/06 02:36:17;;;;;;;6.53;0.70;;;0.50;75.80;;;;;;4131012;28;20030;-83
2022/01/06 02:38:18;;;;;;;4.35;1.00;;;0.50;75.90;;;;;;4143188;28;20076;-83
2022/01/06 02:40:20;;;;;;;9.13;1.48;;;0.50;75.80;;;;;;4132647;28;20096;-83
2022/01/06 02:42:21;;;;;;;6.93;1.45;;;0.50;75.70;;;;;;4134233;28;20057;-83
2022/01/06 02:44:24;;;;;;;3.40;1.40;;;0.50;75.70;;;;;;4149034;28;20314;-83
2022/01/06 02:46:24;;;;;;;;;;;0.40;75.70;;;;;;4134345;28;20087;-83
2022/01/06 02:48:25;;;;;;;3.13;1.27;;;0.40;75.80;;;;;;4130422;28;19916;-83
2022/01/06 02:50:26;;;;;;;5.68;1.10;;;0.40;75.70;;;;;;4137525;28;20026;-83
2022/01/06 02:52:26;;;;;;;14.57;1.35;;;0.40;75.80;;;;;;4149097;28;20026;-83
2022/01/06 02:54:27;;;;;;;7.38;1.63;;;0.40;76.60;;;;;;4148739;28;20018;-83
2022/01/06 02:56:29;;;;;;;11.52;1.95;;;0.40;76.00;;;;;;4143985;28;20018;-83
2022/01/06 02:58:30;;;;;;;9.48;1.92;;;0.40;76.00;;;;;;4128606;28;20088;-83
2022/01/06 03:00:30;;;;;;;9.00;2.38;;;0.40;76.10;;;;;;4135415;28;20435;-81
2022/01/06 03:02:31;;;;;;;8.73;1.90;;;0.40;76.10;;;;;;4145890;28;20029;-81
2022/01/06 03:04:31;;;;;;;10.40;2.35;;;0.50;76.20;;;;;;4157758;28;20543;-81
2022/01/06 03:06:32;;;;;;;5.00;1.75;;;0.50;76.10;;;;;;4129789;28;20038;-81
2022/01/06 03:08:34;;;;;;;10.32;2.42;;;0.50;76.10;;;;;;4141642;28;20037;-81
2022/01/06 03:10:38;;;;;;;7.45;1.67;;;0.50;76.00;;;;;;4128217;28;20030;-81
2022/01/06 03:12:41;;;;;;;6.38;1.40;;;0.50;75.90;;;;;;4146002;28;20022;-81
2022/01/06 03:14:41;;;;;;;;;;;0.50;75.80;;;;;;4129678;28;20026;-81
2022/01/06 03:16:42;;;;;;;6.63;1.30;;;0.50;75.90;;;;;;4114444;28;19922;-81
2022/01/06 03:18:42;;;;;;;6.65;1.55;;;0.50;75.70;;;;;;4129645;28;20049;-81
2022/01/06 03:20:43;;;;;;;4.07;1.45;;;0.50;75.60;;;;;;4150509;28;20036;-81
2022/01/06 03:22:44;;;;;;;4.10;1.33;;;0.50;75.60;;;;;;4145352;28;20065;-81
2022/01/06 03:24:44;;;;;;;3.25;1.00;;;0.50;75.60;;;;;;4144840;28;20030;-81
2022/01/06 03:26:45;;;;;;;4.47;1.50;;;0.50;75.60;;;;;;4129772;28;20436;-81
2022/01/06 03:28:46;;;;;;;4.22;1.27;;;0.50;75.60;;;;;;4144602;28;20084;-81
2022/01/06 03:30:46;;;;;;;3.53;1.00;;;0.50;75.60;;;;;;4147948;28;20368;-81
2022/01/06 03:32:47;;;;;;;8.13;1.33;;;0.40;75.50;;;;;;4143484;28;20033;-81
2022/01/06 03:34:48;;;;;;;6.93;1.17;;;0.40;75.50;;;;;;4129188;28;20068;-81
2022/01/06 03:36:48;;;;;;;5.57;1.30;;;0.40;75.50;;;;;;4143641;28;20033;-81
2022/01/06 03:38:49;;;;;;;6.40;1.10;;;0.40;75.50;;;;;;4144495;28;20086;-81
2022/01/06 03:40:49;;;;;;;4.78;1.02;;;0.30;75.40;;;;;;4128098;28;20025;-81
2022/01/06 03:42:50;;;;;;;8.68;1.15;;;0.30;75.40;;;;;;4154380;28;20029;-81
2022/01/06 03:44:51;;;;;;;4.78;1.25;;;0.30;75.40;;;;;;4128658;28;20038;-81
2022/01/06 03:46:53;;;;;;;16.25;3.53;;;0.20;75.90;;;;;;4129898;28;20114;-81
2022/01/06 03:48:54;;;;;;;24.75;8.75;;;0.20;75.20;;;;;;4129852;28;20038;-83
2022/01/06 03:50:54;;;;;;;7.03;2.05;;;0.10;75.10;;;;;;4136727;28;20482;-83
2022/01/06 03:52:55;;;;;;;7.95;1.88;;;0.10;75.20;;;;;;4151135;28;20506;-81
2022/01/06 03:54:55;;;;;;;7.30;1.20;;;0.00;75.10;;;;;;4128636;28;20027;-81
2022/01/06 03:56:57;;;;;;;5.18;1.48;;;0.00;75.20;;;;;;4161430;28;20025;-81
2022/01/06 03:58:58;;;;;;;3.88;1.35;;;-0.10;75.10;;;;;;4136889;28;20035;-81
2022/01/06 04:00:59;;;;;;;5.72;1.52;;;-0.10;75.10;;;;;;4144092;28;20029;-81
2022/01/06 04:02:59;;;;;;;6.43;1.42;;;-0.20;75.10;;;;;;4160095;28;20045;-81
2022/01/06 04:05:01;;;;;;;4.30;1.80;;;-0.20;75.10;;;;;;4150005;28;20041;-81
2022/01/06 04:07:02;;;;;;;6.43;1.40;;;-0.30;75.10;;;;;;4134421;28;20106;-81
2022/01/06 04:09:03;;;;;;;4.93;1.20;;;-0.30;75.10;;;;;;4149508;28;20026;-81
2022/01/06 04:11:04;;;;;;;2.28;1.00;;;-0.40;75.10;;;;;;4124042;28;20026;-81
2022/01/06 04:13:05;;;;;;;3.97;0.98;;;-0.50;75.10;;;;;;4125501;28;20242;-81
2022/01/06 04:15:12;;;;;;;5.05;1.40;;;-0.60;75.10;;;;;;4149663;28;20034;-81
2022/01/06 04:17:13;;;;;;;4.70;1.88;;;-0.60;75.10;;;;;;4135511;28;20033;-81
2022/01/06 04:19:13;;;;;;;9.18;3.80;;;-0.70;75.10;;;;;;4136349;28;20026;-81
2022/01/06 04:21:14;;;;;;;7.18;2.78;;;-0.70;75.20;;;;;;4150261;28;20018;-81
2022/01/06 04:23:14;;;;;;;6.07;2.15;;;-0.80;75.30;;;;;;4129094;28;20031;-81
2022/01/06 04:25:15;;;;;;;7.47;2.95;;;-0.80;75.30;;;;;;4167316;28;20029;-81
2022/01/06 04:27:16;;;;;;;4.18;1.85;;;-0.80;75.40;;;;;;4117841;28;20497;-80
2022/01/06 04:29:16;;;;;;;4.43;1.45;;;-0.90;75.30;;;;;;4134418;28;20033;-81
2022/01/06 04:31:17;;;;;;;4.28;1.55;;;-0.90;75.40;;;;;;4145081;28;20036;-81
2022/01/06 04:33:17;;;;;;;6.88;1.60;;;-0.90;75.50;;;;;;4178523;28;20044;-81
2022/01/06 04:35:18;;;;;;;4.78;1.70;;;-1.00;75.30;;;;;;4143661;28;20029;-81
2022/01/06 04:37:19;;;;;;;8.77;1.85;;;-1.00;75.30;;;;;;4148015;28;20041;-81
2022/01/06 04:39:19;;;;;;;5.00;1.50;;;-1.10;75.30;;;;;;4133199;28;20563;-81
2022/01/06 04:41:20;;;;;;;10.88;3.33;;;-1.10;75.40;;;;;;4138701;28;20018;-81
2022/01/06 04:43:20;;;;;;;8.43;2.15;;;-1.20;75.40;;;;;;4147365;28;20034;-81
2022/01/06 04:45:21;;;;;;;6.32;2.30;;;-1.20;75.50;;;;;;4149709;28;20366;-81
2022/01/06 04:47:22;;;;;;;8.38;1.92;;;-1.20;75.60;;;;;;4150268;28;20050;-81
2022/01/06 04:49:22;;;;;;;4.78;1.80;;;-1.30;75.80;;;;;;4133935;28;20093;-81
2022/01/06 04:51:23;;;;;;;4.43;1.48;;;-1.30;75.90;;;;;;4123809;28;20087;-81
2022/01/06 04:53:23;;;;;;;6.57;1.75;;;-1.40;76.00;;;;;;4113673;28;20477;-81
2022/01/06 04:55:24;;;;;;;3.65;1.40;;;-1.40;76.20;;;;;;4131917;28;20034;-81
2022/01/06 04:57:25;;;;;;;7.20;1.52;;;-1.40;76.30;;;;;;4118485;28;20023;-81
2022/01/06 04:59:25;;;;;;;3.33;1.30;;;-1.50;76.40;;;;;;4166366;28;20029;-81
2022/01/06 05:01:26;;;;;;;5.30;1.40;;;-1.50;76.40;;;;;;4134840;28;20018;-81
2022/01/06 05:03:26;;;;;;;3.60;1.58;;;-1.50;76.60;;;;;;4152624;28;20538;-81
2022/01/06 05:05:27;;;;;;;5.57;2.20;;;-1.50;76.60;;;;;;4143397;28;20139;-82
2022/01/06 05:07:28;;;;;;;4.93;1.70;;;-1.60;76.50;;;;;;4166933;28;20071;-81
2022/01/06 05:09:28;;;;;;;5.30;1.58;;;-1.60;76.50;;;;;;4129308;28;20194;-81
2022/01/06 05:11:29;;;;;;;7.57;1.50;;;-1.60;76.50;;;;;;4138424;28;20415;-81
2022/01/06 05:13:29;;;;;;;6.95;1.30;;;-1.60;76.40;;;;;;4148869;28;20034;-81
2022/01/06 05:15:30;;;;;;;5.72;1.27;;;-1.70;76.30;;;;;;4152106;28;20065;-81
2022/01/06 05:17:31;;;;;;;4.97;1.20;;;-1.70;76.40;;;;;;4131287;28;20467;-81
2022/01/06 05:19:31;;;;;;;7.70;1.48;;;-1.70;76.40;;;;;;4131330;28;20073;-81
2022/01/06 05:21:33;;;;;;;9.48;1.52;;;-1.80;76.40;;;;;;4165269;28;20545;-81
2022/01/06 05:23:34;;;;;;;5.68;1.23;;;-1.80;76.50;;;;;;4099882;28;20036;-81
2022/01/06 05:25:35;;;;;;;10.52;2.05;;;-1.80;76.70;;;;;;4146450;28;20488;-81
2022/01/06 05:27:35;;;;;;;15.50;1.63;;;-1.90;76.80;;;;;;4144292;28;20032;-81
2022/01/06 05:29:37;;;;;;;4.10;1.42;;;-1.90;77.00;;;;;;4133523;28;20030;-81
2022/01/06 05:31:37;;;;;;;5.47;1.50;;;-1.90;77.30;;;;;;4116145;28;20070;-81
2022/01/06 05:33:38;;;;;;;9.73;1.40;;;-2.00;77.50;;;;;;4115577;28;20027;-81
2022/01/06 05:35:39;;;;;;;5.28;1.45;;;-2.00;77.90;;;;;;4127308;28;20026;-81
2022/01/06 05:37:39;;;;;;;4.25;1.60;;;-2.00;78.30;;;;;;4163642;28;20029;-81
2022/01/06 05:39:40;;;;;;;7.85;1.80;;;-2.00;78.50;;;;;;4132341;28;20029;-81
2022/01/06 05:41:41;;;;;;;5.93;1.75;;;-2.00;78.70;;;;;;4150128;28;20051;-81
2022/01/06 05:43:42;;;;;;;9.73;1.75;;;-2.00;79.00;;;;;;4137453;28;20038;-81
2022/01/06 05:45:42;;;;;;;12.00;1.60;;;-2.10;79.10;;;;;;4148076;28;20436;-81
2022/01/06 05:47:43;;;;;;;7.15;1.40;;;-2.00;79.30;;;;;;4134100;28;20030;-81
2022/01/06 05:49:44;;;;;;;7.60;1.60;;;-2.00;79.40;;;;;;4150236;28;20026;-81
2022/01/06 05:51:44;;;;;;;4.97;1.17;;;-2.00;79.50;;;;;;4134048;28;20458;-81
2022/01/06 05:53:45;;;;;;;4.88;1.27;;;-2.00;79.50;;;;;;4140076;28;20038;-81
2022/01/06 05:55:45;;;;;;;6.13;1.33;;;-2.00;79.50;;;;;;4125176;28;20023;-81
2022/01/06 05:57:46;;;;;;;10.02;1.52;;;-2.00;79.60;;;;;;4133148;28;20484;-81
2022/01/06 05:59:47;;;;;;;5.93;1.15;;;-2.00;79.50;;;;;;4149960;28;20109;-81
2022/01/06 06:01:47;;;;;;;5.18;1.50;;;-2.10;79.50;;;;;;4147983;28;20045;-81
2022/01/06 06:03:49;;;;;;;6.53;1.27;;;-2.10;80.30;;;;;;4128363;28;20038;-81
2022/01/06 06:05:49;;;;;;;15.77;1.50;;;-2.10;79.50;;;;;;4137517;28;20124;-81
2022/01/06 06:07:50;;;;;;;9.05;1.80;;;-2.10;79.40;;;;;;4145707;28;20044;-81
2022/01/06 06:09:51;;;;;;;5.45;1.63;;;-2.10;79.40;;;;;;4129786;28;20217;-81
2022/01/06 06:11:51;;;;;;;5.47;1.23;;;-2.10;79.30;;;;;;4129260;28;20034;-81
2022/01/06 06:13:52;;;;;;;5.35;1.20;;;-2.10;79.20;;;;;;4136466;28;20563;-81
2022/01/06 06:15:53;;;;;;;2.65;1.15;;;-2.10;79.10;;;;;;4142480;28;20057;-81
2022/01/06 06:17:53;;;;;;;5.70;1.83;;;-2.10;78.90;;;;;;4146000;28;20014;-81
2022/01/06 06:19:54;;;;;;;6.43;1.20;;;-2.10;78.80;;;;;;4145705;28;20670;-82
2022/01/06 06:21:54;;;;;;;7.18;1.88;;;-2.20;78.50;;;;;;4113238;28;20050;-81
2022/01/06 06:23:55;;;;;;;5.10;1.77;;;-2.20;78.40;;;;;;4149634;28;20057;-81
2022/01/06 06:25:55;;;;;;;9.90;1.60;;;-2.20;78.30;;;;;;4128742;28;20030;-81
2022/01/06 06:27:56;;;;;;;6.95;1.38;;;-2.20;78.30;;;;;;4145590;28;20028;-81
2022/01/06 06:29:57;;;;;;;8.02;1.63;;;-2.30;78.20;;;;;;4145513;28;20041;-81
2022/01/06 06:31:57;;;;;;;5.47;1.58;;;-2.30;78.30;;;;;;4145791;28;20034;-81
2022/01/06 06:33:58;;;;;;;11.65;1.42;;;-2.40;78.40;;;;;;4155203;28;20501;-81
2022/01/06 06:35:58;;;;;;;5.43;1.35;;;-2.30;78.50;;;;;;4126469;28;20118;-81
2022/01/06 06:37:59;;;;;;;3.10;0.80;;;-2.40;78.50;;;;;;4131472;28;20026;-81
2022/01/06 06:40:00;;;;;;;4.05;1.17;;;-2.40;78.50;;;;;;4124653;28;20104;-81
2022/01/06 06:42:00;;;;;;;5.07;1.30;;;-2.40;78.50;;;;;;4129885;28;20409;-81
2022/01/06 06:44:01;;;;;;;3.38;1.13;;;-2.40;78.50;;;;;;4146279;28;20037;-81
2022/01/06 06:46:01;;;;;;;6.13;1.20;;;-2.40;78.30;;;;;;4142428;28;20062;-81
2022/01/06 06:48:02;;;;;;;4.95;1.02;;;-2.40;78.30;;;;;;4150604;28;20149;-83
2022/01/06 06:50:03;;;;;;;4.72;1.30;;;-2.50;78.00;;;;;;4150032;28;20029;-81
2022/01/06 06:52:04;;;;;;;6.00;1.05;;;-2.50;77.90;;;;;;4151145;28;20025;-81
2022/01/06 06:54:05;;;;;;;8.32;1.10;;;-2.50;77.70;;;;;;4134115;28;20118;-81
2022/01/06 06:56:05;;;;;;;4.55;1.17;;;-2.50;77.70;;;;;;4115460;28;20026;-81
2022/01/06 06:58:06;;;;;;;9.80;1.30;;;-2.60;77.50;;;;;;4142140;28;20057;-82
2022/01/06 07:00:08;;;;;;;7.97;1.30;;;-2.60;77.50;;;;;;4134817;28;20089;-81
2022/01/06 07:02:08;;;;;;;2.95;0.90;;;-2.60;77.50;;;;;;4134252;28;20538;-81
2022/01/06 07:04:09;;;;;;;7.13;0.88;;;-2.60;77.40;;;;;;4135430;28;20061;-81
2022/01/06 07:06:10;;;;;;;9.25;1.58;;;-2.60;77.50;;;;;;4141214;28;20496;-82
2022/01/06 07:08:10;;;;;;;9.77;1.40;;;-2.70;77.40;;;;;;4137632;28;20048;-81
2022/01/06 07:10:11;;;;;;;8.13;1.55;;;-2.70;77.40;;;;;;4142865;28;20116;-81
2022/01/06 07:12:11;;;;;;;7.57;1.45;;;-2.80;77.40;;;;;;4133911;28;20093;-82
2022/01/06 07:14:12;;;;;;;3.63;1.65;;;-2.80;77.40;;;;;;4142122;28;20490;-81
2022/01/06 07:16:13;;;;;;;4.90;1.20;;;-2.80;77.50;;;;;;4159299;28;20036;-81
2022/01/06 07:18:13;;;;;;;6.72;1.35;;;-2.90;77.50;;;;;;4153217;28;20034;-81
2022/01/06 07:20:14;;;;;;;6.95;1.13;;;-2.90;78.30;;;;;;4151555;28;20034;-81
2022/01/06 07:22:14;;;;;;;9.07;1.30;;;-3.00;77.60;;;;;;4151343;28;20029;-81
2022/01/06 07:24:15;;;;;;;5.88;1.40;;;-3.00;77.70;;;;;;4132805;28;20022;-81
2022/01/06 07:26:15;;;;;;;4.20;1.23;;;-3.00;77.80;;;;;;4162993;28;20131;-82
2022/01/06 07:28:16;;;;;;;4.38;1.02;;;-3.00;77.80;;;;;;4146227;28;20040;-81
2022/01/06 07:30:17;;;;;;;7.00;1.10;;;-3.10;77.80;;;;;;4166078;28;20033;-81
2022/01/06 07:32:17;;;;;;;4.72;1.30;;;-3.10;77.80;;;;;;4132988;28;20512;-82
2022/01/06 07:34:18;;;;;;;3.15;1.42;;;-3.10;77.80;;;;;;4146250;28;20034;-81
2022/01/06 07:36:19;;;;;;;3.38;1.13;;;-3.10;77.80;;;;;;4159914;28;20025;-82
2022/01/06 07:38:19;;;;;;;5.97;1.60;;;-3.10;77.80;;;;;;4147852;28;20073;-81
2022/01/06 07:40:20;;;;;;;5.03;1.20;;;-3.10;77.80;;;;;;4136743;28;20034;-82
2022/01/06 07:42:21;;;;;;;5.10;1.20;;;-3.10;77.90;;;;;;4124161;28;20053;-81
2022/01/06 07:44:21;;;;;;;7.70;1.52;;;-3.10;77.80;;;;;;4133802;28;20030;-81
2022/01/06 07:46:22;;;;;;;2.92;1.27;;;-3.20;77.60;;;;;;4134372;28;20038;-82
2022/01/06 07:48:30;;;;;;;7.00;1.38;;;-3.20;77.60;;;;;;4148764;28;20034;-82
2022/01/06 07:50:33;;;;;;;5.80;1.85;;;-3.20;77.70;;;;;;4118924;28;20038;-82
2022/01/06 07:52:33;;;;;;;;;;;-3.20;77.80;;;;;;4133667;28;20125;-82
2022/01/06 07:54:34;;;;;;;6.00;1.35;;;-3.20;78.20;;;;;;4166140;28;19932;-82
2022/01/06 07:56:34;;;;;;;7.72;1.50;;;-3.20;79.10;;;;;;4128275;28;20030;-82
2022/01/06 07:58:35;;;;;;;12.32;1.73;;;-3.20;78.60;;;;;;4127087;28;20033;-82
2022/01/06 08:00:35;;;;;;;7.50;1.63;;;-3.20;78.90;;;;;;4133779;28;20028;-82
2022/01/06 08:02:36;;;;;;;7.88;1.60;;;-3.20;79.20;;;;;;4149696;28;20034;-82
2022/01/06 08:04:37;;;;;;;3.38;1.20;;;-3.20;79.40;;;;;;4135944;28;20030;-82
2022/01/06 08:06:37;;;;;;;8.18;1.80;;;-3.20;79.50;;;;;;4101169;28;20039;-82
2022/01/06 08:08:38;;;;;;;4.85;1.50;;;-3.20;79.60;;;;;;4138534;28;20155;-81
2022/01/06 08:10:38;;;;;;;7.57;1.83;;;-3.10;79.60;;;;;;4126298;28;20056;-82
2022/01/06 08:12:39;;;;;;;7.93;1.95;;;-3.10;79.60;;;;;;4126644;28;20046;-82
2022/01/06 08:14:40;;;;;;;7.55;2.05;;;-3.10;79.60;;;;;;4143747;28;20033;-81
2022/01/06 08:16:40;;;;;;;5.80;1.67;;;-3.10;79.40;;;;;;4105628;28;20097;-82
2022/01/06 08:18:41;;;;;;;6.18;1.60;;;-3.10;79.30;;;;;;4141221;28;20038;-82
2022/01/06 08:20:41;;;;;;;5.85;1.50;;;-3.10;79.30;;;;;;4136461;28;20077;-81
2022/01/06 08:22:42;;;;;;;9.02;1.95;;;-3.10;79.20;;;;;;4124921;28;20180;-82
2022/01/06 08:24:43;;;;;;;3.83;2.10;;;-3.10;79.20;;;;;;4135742;28;20523;-82
2022/01/06 08:26:43;;;;;;;11.43;3.05;;;-3.10;79.20;;;;;;4134952;28;20036;-82
2022/01/06 08:28:47;;;;;;;9.02;2.95;;;-3.10;79.10;;;;;;4135429;28;20148;-82
2022/01/06 08:30:47;;;;;;;7.35;2.55;;;-3.10;79.10;;;;;;4141174;28;20037;-81
2022/01/06 08:32:48;;;;;;;7.57;2.42;;;-3.10;79.20;;;;;;4135380;28;20193;-82
2022/01/06 08:34:49;;;;;;;13.52;2.10;;;-3.00;79.20;;;;;;4122788;28;20084;-82
2022/01/06 08:36:52;;;;;;;10.77;2.58;;;-3.00;79.20;;;;;;4124606;28;20030;-82
2022/01/06 08:38:53;;;;;;;5.78;2.10;;;-3.00;79.30;;;;;;4125303;28;20484;-82
2022/01/06 08:40:53;;;;;;;10.85;2.20;;;-3.00;79.40;;;;;;4153486;28;20159;-82
2022/01/06 08:42:54;;;;;;;9.90;2.60;;;-2.90;79.50;;;;;;4126337;28;20586;-82
2022/01/06 08:44:55;;;;;;;6.57;2.30;;;-2.90;79.50;;;;;;4119955;28;20045;-81
2022/01/06 08:47:00;;;;;;;13.23;3.55;;;-2.80;79.60;;;;;;4138795;28;20043;-82
2022/01/06 08:49:02;;;;;;;9.60;2.70;;;-2.90;79.50;;;;;;4131506;28;20048;-81
2022/01/06 08:51:03;;;;;;;6.03;2.25;;;-2.80;79.60;;;;;;4143490;28;20073;-81
2022/01/06 08:53:03;;;;;;;6.38;2.45;;;-2.80;79.60;;;;;;4155752;28;20030;-82
2022/01/06 08:55:05;;;;;;;187.60;17.30;;;-2.80;79.60;;;;;;4106245;28;20027;-81
2022/01/06 08:57:05;;;;;;;40.28;5.50;;;-2.70;79.70;;;;;;4128850;28;20034;-82
2022/01/06 08:59:06;;;;;;;37.35;4.65;;;-2.70;79.70;;;;;;4139047;28;20028;-81
2022/01/06 09:01:07;;;;;;;15.25;2.88;;;-2.70;79.70;;;;;;4138048;28;20022;-81
2022/01/06 09:03:08;;;;;;;13.05;2.92;;;-2.70;79.70;;;;;;4156667;28;20460;-81
2022/01/06 09:05:10;;;;;;;8.60;3.05;;;-2.60;79.80;;;;;;4138806;28;20070;-82
2022/01/06 09:07:10;;;;;;;7.50;2.38;;;-2.60;79.80;;;;;;4122550;28;20033;-81
2022/01/06 09:09:11;;;;;;;6.68;2.13;;;-2.60;79.80;;;;;;4138822;28;20105;-82
2022/01/06 09:11:12;;;;;;;11.30;2.35;;;-2.60;79.90;;;;;;4137915;28;20015;-81
2022/01/06 09:13:12;;;;;;;14.85;2.90;;;-2.50;80.00;;;;;;4138770;28;20027;-81
2022/01/06 09:15:13;;;;;;;7.13;2.55;;;-2.50;80.00;;;;;;4123304;28;20026;-81
2022/01/06 09:17:14;;;;;;;5.78;2.08;;;-2.50;80.10;;;;;;4136043;28;20500;-81
2022/01/06 09:19:14;;;;;;;7.85;2.50;;;-2.40;80.20;;;;;;4138349;28;20034;-81
2022/01/06 09:21:22;;;;;;;8.00;2.35;;;-2.40;80.30;;;;;;4128518;28;20026;-81
2022/01/06 09:23:23;;;;;;;10.18;2.60;;;-2.40;80.50;;;;;;4150079;28;20101;-81
2022/01/06 09:25:23;;;;;;;13.50;2.67;;;-2.40;80.60;;;;;;4132439;28;20416;-81
2022/01/06 09:27:24;;;;;;;7.53;2.40;;;-2.30;80.80;;;;;;4131110;28;20038;-81
2022/01/06 09:29:24;;;;;;;6.05;2.20;;;-2.30;80.80;;;;;;4130117;28;20038;-81
2022/01/06 09:31:25;;;;;;;4.97;2.38;;;-2.30;81.00;;;;;;4126674;28;20030;-81
2022/01/06 09:33:25;;;;;;;13.73;3.03;;;-2.20;81.10;;;;;;4114862;28;20456;-81
2022/01/06 09:35:26;;;;;;;9.52;2.30;;;-2.20;81.10;;;;;;4133364;28;20034;-81
2022/01/06 09:37:27;;;;;;;7.63;1.95;;;-2.10;81.20;;;;;;4140692;28;20025;-82
2022/01/06 09:39:27;;;;;;;7.32;2.35;;;-2.10;81.30;;;;;;4140046;28;20199;-81
2022/01/06 09:41:30;;;;;;;4.93;2.10;;;-2.00;81.30;;;;;;4129572;28;20026;-81
2022/01/06 09:43:32;;;;;;;12.00;2.08;;;-2.00;81.30;;;;;;4125071;28;20080;-81
2022/01/06 09:45:34;;;;;;;9.55;2.10;;;-2.00;81.40;;;;;;4115202;28;20451;-82
2022/01/06 09:47:36;;;;;;;11.02;2.13;;;-1.90;81.40;;;;;;4124413;28;20034;-81
2022/01/06 09:49:38;;;;;;;9.88;2.45;;;-1.80;81.50;;;;;;4130960;28;20030;-81
2022/01/06 09:51:38;;;;;;;7.80;2.42;;;-1.80;81.50;;;;;;4145714;28;20424;-81
2022/01/06 09:53:39;;;;;;;11.23;2.60;;;-1.70;81.50;;;;;;4129442;28;20034;-82
2022/01/06 09:55:40;;;;;;;9.68;1.90;;;-1.70;81.50;;;;;;4124071;28;20417;-82
2022/01/06 09:57:59;;;;;;;6.97;2.22;;;-1.60;81.60;;;;;;4131516;28;20029;-82
2022/01/06 10:00:00;;;;;;;6.88;2.22;;;-1.60;81.60;;;;;;4123540;28;20453;-82
2022/01/06 10:02:01;;;;;;;11.82;2.25;;;-1.50;81.70;;;;;;4112234;28;20126;-82
2022/01/06 10:04:01;;;;;;;9.93;1.95;;;-1.50;81.60;;;;;;4139959;28;20045;-82
2022/01/06 10:06:13;;;;;;;11.50;2.55;;;-1.40;81.60;;;;;;4157174;28;20067;-82
2022/01/06 10:08:14;;;;;;;9.20;2.05;;;-1.40;81.60;;;;;;4155808;28;20033;-82
2022/01/06 10:10:15;;;;;;;9.82;2.78;;;-1.30;81.60;;;;;;4130588;28;20053;-81
2022/01/06 10:12:15;;;;;;;4.95;1.63;;;-1.20;81.70;;;;;;4140854;28;20034;-81
2022/01/06 10:14:20;;;;;;;5.47;1.90;;;-1.20;81.60;;;;;;4143056;28;20066;-81
2022/01/06 10:16:21;;;;;;;12.30;2.58;;;-1.20;81.60;;;;;;4119564;28;20048;-81
2022/01/06 10:18:23;;;;;;;7.35;2.30;;;-1.10;81.60;;;;;;4132299;28;20061;-81
2022/01/06 10:20:28;;;;;;;5.93;2.80;;;-1.10;81.60;;;;;;4146954;28;20045;-81
2022/01/06 10:22:29;;;;;;;6.97;2.38;;;-1.00;81.60;;;;;;4141635;28;20534;-81
2022/01/06 10:24:29;;;;;;;5.53;2.50;;;-0.90;81.70;;;;;;4114993;28;20039;-81
2022/01/06 10:26:30;;;;;;;9.13;1.80;;;-0.90;81.60;;;;;;4126565;28;20038;-81
2022/01/06 10:28:31;;;;;;;6.55;2.30;;;-0.80;81.60;;;;;;4157494;28;20036;-82
2022/01/06 10:30:31;;;;;;;6.93;2.42;;;-0.80;81.70;;;;;;4130253;28;20531;-81
2022/01/06 10:32:32;;;;;;;5.53;2.08;;;-0.80;81.60;;;;;;4145776;28;20046;-81
2022/01/06 10:34:34;;;;;;;11.95;2.40;;;-0.70;81.60;;;;;;4130195;28;20038;-81
2022/01/06 10:36:36;;;;;;;5.57;2.08;;;-0.60;81.70;;;;;;4130571;28;20408;-81